sensor_id;sensor_type;location;lat;lon;timestamp;pressure;altitude;pressure_sealevel;temperature;humidity
50125;BME280;36023;48.670;6.184;2023-03-04T00:01:59;99640.13;;;15.59;40.88
50125;BME280;36023;48.670;6.184;2023-03-04T00:04:25;99638.41;;;15.58;40.89
50125;BME280;36023;48.670;6.184;2023-03-04T00:06:53;99641.94;;;15.57;40.75
50125;BME280;36023;48.670;6.184;2023-03-04T00:09:18;99640.22;;;15.56;40.72
50125;BME280;36023;48.670;6.184;2023-03-04T00:11:44;99642.84;;;15.56;40.69
50125;BME280;36023;48.670;6.184;2023-03-04T00:14:10;99645.44;;;15.56;40.52
50125;BME280;36023;48.670;6.184;2023-03-04T00:16:35;99646.31;;;15.57;40.55
50125;BME280;36023;48.670;6.184;2023-03-04T00:19:02;99645.47;;;15.55;40.38
50125;BME280;36023;48.670;6.184;2023-03-04T00:21:28;99644.69;;;15.53;40.37
50125;BME280;36023;48.670;6.184;2023-03-04T00:23:53;99652.44;;;15.54;40.27
50125;BME280;36023;48.670;6.184;2023-03-04T00:26:20;99647.28;;;15.53;40.30
50125;BME280;36023;48.670;6.184;2023-03-04T00:28:46;99650.75;;;15.53;39.93
50125;BME280;36023;48.670;6.184;2023-03-04T00:31:12;99649.91;;;15.53;40.14
50125;BME280;36023;48.670;6.184;2023-03-04T00:33:37;99653.41;;;15.52;40.08
50125;BME280;36023;48.670;6.184;2023-03-04T00:36:05;99664.72;;;15.52;39.99
50125;BME280;36023;48.670;6.184;2023-03-04T00:38:31;99663.00;;;15.51;40.05
50125;BME280;36023;48.670;6.184;2023-03-04T00:40:56;99661.31;;;15.50;40.01
50125;BME280;36023;48.670;6.184;2023-03-04T00:43:22;99662.22;;;15.49;39.90
50125;BME280;36023;48.670;6.184;2023-03-04T00:45:48;99660.44;;;15.50;39.88
50125;BME280;36023;48.670;6.184;2023-03-04T00:48:14;99659.59;;;15.49;39.81
50125;BME280;36023;48.670;6.184;2023-03-04T00:50:41;99663.91;;;15.50;39.86
50125;BME280;36023;48.670;6.184;2023-03-04T00:53:07;99676.09;;;15.50;39.91
50125;BME280;36023;48.670;6.184;2023-03-04T00:55:34;99664.81;;;15.49;39.87
50125;BME280;36023;48.670;6.184;2023-03-04T00:58:02;99672.66;;;15.49;39.88
50125;BME280;36023;48.670;6.184;2023-03-04T01:00:28;99668.31;;;15.48;39.89
50125;BME280;36023;48.670;6.184;2023-03-04T01:02:53;99667.44;;;15.49;39.77
50125;BME280;36023;48.670;6.184;2023-03-04T01:05:20;99675.25;;;15.49;39.88
50125;BME280;36023;48.670;6.184;2023-03-04T01:07:47;99671.81;;;15.47;39.71
50125;BME280;36023;48.670;6.184;2023-03-04T01:10:13;99672.66;;;15.48;39.70
50125;BME280;36023;48.670;6.184;2023-03-04T01:12:40;99663.97;;;15.47;39.71
50125;BME280;36023;48.670;6.184;2023-03-04T01:15:10;99664.88;;;15.46;39.71
50125;BME280;36023;48.670;6.184;2023-03-04T01:17:38;99663.97;;;15.47;39.77
50125;BME280;36023;48.670;6.184;2023-03-04T01:20:05;99665.75;;;15.47;39.64
50125;BME280;36023;48.670;6.184;2023-03-04T01:22:31;99662.28;;;15.46;39.59
50125;BME280;36023;48.670;6.184;2023-03-04T01:24:57;99656.22;;;15.46;39.37
50125;BME280;36023;48.670;6.184;2023-03-04T01:27:25;99655.34;;;15.45;39.48
50125;BME280;36023;48.670;6.184;2023-03-04T01:29:51;99657.97;;;15.45;39.33
50125;BME280;36023;48.670;6.184;2023-03-04T01:32:17;99656.25;;;15.44;39.30
50125;BME280;36023;48.670;6.184;2023-03-04T01:34:42;99651.03;;;15.44;39.20
50125;BME280;36023;48.670;6.184;2023-03-04T01:37:08;99652.84;;;15.42;39.15
50125;BME280;36023;48.670;6.184;2023-03-04T01:39:34;99646.78;;;15.42;39.09
50125;BME280;36023;48.670;6.184;2023-03-04T01:42:00;99654.59;;;15.42;39.09
50125;BME280;36023;48.670;6.184;2023-03-04T01:44:25;99646.78;;;15.42;38.93
50125;BME280;36023;48.670;6.184;2023-03-04T01:46:52;99646.78;;;15.42;38.92
50125;BME280;36023;48.670;6.184;2023-03-04T01:49:21;99644.19;;;15.40;38.89
50125;BME280;36023;48.670;6.184;2023-03-04T01:51:49;99649.41;;;15.40;38.92
50125;BME280;36023;48.670;6.184;2023-03-04T01:54:17;99647.69;;;15.39;38.74
50125;BME280;36023;48.670;6.184;2023-03-04T01:56:47;99640.78;;;15.38;38.85
50125;BME280;36023;48.670;6.184;2023-03-04T01:59:16;99638.16;;;15.38;38.79
50125;BME280;36023;48.670;6.184;2023-03-04T02:01:45;99634.72;;;15.38;38.53
50125;BME280;36023;48.670;6.184;2023-03-04T02:04:14;99638.22;;;15.37;38.68
50125;BME280;36023;48.670;6.184;2023-03-04T02:06:43;99631.25;;;15.37;38.53
50125;BME280;36023;48.670;6.184;2023-03-04T02:09:10;99626.94;;;15.36;38.62
50125;BME280;36023;48.670;6.184;2023-03-04T02:11:36;99632.19;;;15.35;38.51
50125;BME280;36023;48.670;6.184;2023-03-04T02:14:03;99633.06;;;15.35;38.55
50125;BME280;36023;48.670;6.184;2023-03-04T02:16:30;99628.75;;;15.34;38.45
50125;BME280;36023;48.670;6.184;2023-03-04T02:18:56;99632.25;;;15.33;38.36
50125;BME280;36023;48.670;6.184;2023-03-04T02:21:29;99626.16;;;15.32;38.30
50125;BME280;36023;48.670;6.184;2023-03-04T02:26:35;99629.66;;;15.31;38.21
50125;BME280;36023;48.670;6.184;2023-03-04T02:29:02;99626.22;;;15.31;38.17
50125;BME280;36023;48.670;6.184;2023-03-04T02:31:42;99628.81;;;15.31;38.22
50125;BME280;36023;48.670;6.184;2023-03-04T02:34:14;99634.09;;;15.29;38.13
50125;BME280;36023;48.670;6.184;2023-03-04T02:36:42;99636.69;;;15.29;38.04
50125;BME280;36023;48.670;6.184;2023-03-04T02:39:22;99630.56;;;15.30;38.00
50125;BME280;36023;48.670;6.184;2023-03-04T02:41:51;99634.94;;;15.30;38.03
50125;BME280;36023;48.670;6.184;2023-03-04T02:44:22;99627.16;;;15.28;37.95
50125;BME280;36023;48.670;6.184;2023-03-04T02:46:50;99624.56;;;15.28;38.04
50125;BME280;36023;48.670;6.184;2023-03-04T02:49:17;99625.41;;;15.29;37.99
50125;BME280;36023;48.670;6.184;2023-03-04T02:51:43;99621.03;;;15.29;37.95
50125;BME280;36023;48.670;6.184;2023-03-04T02:54:14;99616.72;;;15.28;38.08
50125;BME280;36023;48.670;6.184;2023-03-04T02:56:50;99627.16;;;15.28;37.77
50125;BME280;36023;48.670;6.184;2023-03-04T02:59:17;99615.88;;;15.28;38.02
50125;BME280;36023;48.670;6.184;2023-03-04T03:01:44;99625.47;;;15.27;37.84
50125;BME280;36023;48.670;6.184;2023-03-04T03:04:10;99626.31;;;15.28;38.04
50125;BME280;36023;48.670;6.184;2023-03-04T03:06:39;99623.75;;;15.26;37.89
50125;BME280;36023;48.670;6.184;2023-03-04T03:09:07;99624.59;;;15.27;38.02
50125;BME280;36023;48.670;6.184;2023-03-04T03:11:33;99620.28;;;15.26;37.90
50125;BME280;36023;48.670;6.184;2023-03-04T03:13:59;99622.06;;;15.25;37.70
50125;BME280;36023;48.670;6.184;2023-03-04T03:16:25;99625.50;;;15.26;37.86
50125;BME280;36023;48.670;6.184;2023-03-04T03:18:51;99624.66;;;15.25;37.83
50125;BME280;36023;48.670;6.184;2023-03-04T03:21:18;99622.91;;;15.24;37.73
50125;BME280;36023;48.670;6.184;2023-03-04T03:23:44;99616.84;;;15.24;37.71
50125;BME280;36023;48.670;6.184;2023-03-04T03:26:12;99625.53;;;15.24;37.78
50125;BME280;36023;48.670;6.184;2023-03-04T03:28:37;99621.22;;;15.23;37.60
50125;BME280;36023;48.670;6.184;2023-03-04T03:31:03;99625.59;;;15.23;37.67
50125;BME280;36023;48.670;6.184;2023-03-04T03:33:29;99624.72;;;15.22;37.69
50125;BME280;36023;48.670;6.184;2023-03-04T03:35:55;99616.06;;;15.22;37.50
50125;BME280;36023;48.670;6.184;2023-03-04T03:38:20;99624.78;;;15.21;37.46
50125;BME280;36023;48.670;6.184;2023-03-04T03:40:46;99627.41;;;15.21;37.47
50125;BME280;36023;48.670;6.184;2023-03-04T03:43:12;99632.63;;;15.21;37.36
50125;BME280;36023;48.670;6.184;2023-03-04T03:45:37;99627.41;;;15.21;37.37
50125;BME280;36023;48.670;6.184;2023-03-04T03:48:03;99627.44;;;15.19;37.22
50125;BME280;36023;48.670;6.184;2023-03-04T03:50:29;99625.69;;;15.20;37.16
50125;BME280;36023;48.670;6.184;2023-03-04T03:52:55;99629.19;;;15.19;37.12
50125;BME280;36023;48.670;6.184;2023-03-04T03:55:22;99632.72;;;15.18;37.15
50125;BME280;36023;48.670;6.184;2023-03-04T03:57:47;99632.72;;;15.18;37.17
50125;BME280;36023;48.670;6.184;2023-03-04T04:00:13;99633.56;;;15.18;37.13
50125;BME280;36023;48.670;6.184;2023-03-04T04:02:40;99633.59;;;15.17;37.18
50125;BME280;36023;48.670;6.184;2023-03-04T04:05:07;99637.06;;;15.17;37.00
50125;BME280;36023;48.670;6.184;2023-03-04T04:07:36;99634.50;;;15.16;37.01
50125;BME280;36023;48.670;6.184;2023-03-04T04:10:03;99635.34;;;15.16;36.93
50125;BME280;36023;48.670;6.184;2023-03-04T04:12:29;99644.06;;;15.15;36.91
50125;BME280;36023;48.670;6.184;2023-03-04T04:14:58;99644.13;;;15.14;36.88
50125;BME280;36023;48.670;6.184;2023-03-04T04:17:24;99630.22;;;15.13;36.85
50125;BME280;36023;48.670;6.184;2023-03-04T04:19:50;99645.88;;;15.13;36.76
50125;BME280;36023;48.670;6.184;2023-03-04T04:22:18;99645.88;;;15.13;36.93
50125;BME280;36023;48.670;6.184;2023-03-04T04:24:45;99645.03;;;15.13;36.97
50125;BME280;36023;48.670;6.184;2023-03-04T04:27:12;99644.19;;;15.12;36.65
50125;BME280;36023;48.670;6.184;2023-03-04T04:29:39;99642.47;;;15.11;36.78
50125;BME280;36023;48.670;6.184;2023-03-04T04:32:05;99641.63;;;15.11;36.72
50125;BME280;36023;48.670;6.184;2023-03-04T04:34:31;99651.22;;;15.10;36.66
50125;BME280;36023;48.670;6.184;2023-03-04T04:36:56;99652.94;;;15.10;36.56
50125;BME280;36023;48.670;6.184;2023-03-04T04:39:22;99652.94;;;15.10;36.59
50125;BME280;36023;48.670;6.184;2023-03-04T04:41:48;99649.47;;;15.09;36.71
50125;BME280;36023;48.670;6.184;2023-03-04T04:44:14;99645.09;;;15.10;36.66
50125;BME280;36023;48.670;6.184;2023-03-04T04:46:40;99647.75;;;15.08;36.51
50125;BME280;36023;48.670;6.184;2023-03-04T04:49:06;99644.31;;;15.08;36.55
50125;BME280;36023;48.670;6.184;2023-03-04T04:51:34;99646.00;;;15.09;36.46
50125;BME280;36023;48.670;6.184;2023-03-04T04:54:00;99640.84;;;15.07;36.48
50125;BME280;36023;48.670;6.184;2023-03-04T04:56:28;99640.00;;;15.07;36.34
50125;BME280;36023;48.670;6.184;2023-03-04T04:58:59;99636.53;;;15.06;36.45
50125;BME280;36023;48.670;6.184;2023-03-04T05:01:25;99634.78;;;15.07;36.52
50125;BME280;36023;48.670;6.184;2023-03-04T05:03:51;99635.63;;;15.07;36.41
50125;BME280;36023;48.670;6.184;2023-03-04T05:06:22;99639.13;;;15.06;36.49
50125;BME280;36023;48.670;6.184;2023-03-04T05:08:48;99630.47;;;15.05;36.46
50125;BME280;36023;48.670;6.184;2023-03-04T05:11:14;99643.50;;;15.05;36.32
50125;BME280;36023;48.670;6.184;2023-03-04T05:13:40;99642.66;;;15.05;36.28
50125;BME280;36023;48.670;6.184;2023-03-04T05:16:07;99647.00;;;15.04;36.38
50125;BME280;36023;48.670;6.184;2023-03-04T05:18:33;99647.00;;;15.04;36.41
50125;BME280;36023;48.670;6.184;2023-03-04T05:21:01;99650.53;;;15.03;36.45
50125;BME280;36023;48.670;6.184;2023-03-04T05:23:30;99641.84;;;15.03;36.38
50125;BME280;36023;48.670;6.184;2023-03-04T05:25:58;99643.59;;;15.02;36.41
50125;BME280;36023;48.670;6.184;2023-03-04T05:28:23;99638.38;;;15.02;36.34
50125;BME280;36023;48.670;6.184;2023-03-04T05:30:49;99644.53;;;15.00;36.35
50125;BME280;36023;48.670;6.184;2023-03-04T05:33:16;99649.75;;;15.00;36.36
50125;BME280;36023;48.670;6.184;2023-03-04T05:35:43;99653.19;;;15.00;36.19
50125;BME280;36023;48.670;6.184;2023-03-04T05:38:12;99650.59;;;15.00;36.17
50125;BME280;36023;48.670;6.184;2023-03-04T05:40:38;99649.78;;;14.98;36.04
50125;BME280;36023;48.670;6.184;2023-03-04T05:43:04;99650.69;;;14.97;36.15
50125;BME280;36023;48.670;6.184;2023-03-04T05:45:30;99657.63;;;14.98;36.08
50125;BME280;36023;48.670;6.184;2023-03-04T05:47:55;99656.75;;;14.98;35.92
50125;BME280;36023;48.670;6.184;2023-03-04T05:50:22;99663.72;;;14.97;36.18
50125;BME280;36023;48.670;6.184;2023-03-04T05:52:48;99655.06;;;14.97;35.92
50125;BME280;36023;48.670;6.184;2023-03-04T05:55:15;99656.81;;;14.96;35.94
50125;BME280;36023;48.670;6.184;2023-03-04T05:57:42;99667.25;;;14.96;35.82
50125;BME280;36023;48.670;6.184;2023-03-04T06:00:09;99658.56;;;14.96;35.84
50125;BME280;36023;48.670;6.184;2023-03-04T06:02:39;99668.16;;;14.95;35.83
50125;BME280;36023;48.670;6.184;2023-03-04T06:05:06;99667.31;;;14.95;35.88
50125;BME280;36023;48.670;6.184;2023-03-04T06:07:34;99667.31;;;14.95;35.81
50125;BME280;36023;48.670;6.184;2023-03-04T06:10:00;99675.13;;;14.95;35.74
50125;BME280;36023;48.670;6.184;2023-03-04T06:12:26;99669.06;;;14.94;35.75
50125;BME280;36023;48.670;6.184;2023-03-04T06:14:53;99676.88;;;14.94;35.79
50125;BME280;36023;48.670;6.184;2023-03-04T06:17:20;99684.69;;;14.94;35.70
50125;BME280;36023;48.670;6.184;2023-03-04T06:19:46;99681.25;;;14.92;35.63
50125;BME280;36023;48.670;6.184;2023-03-04T06:22:12;99692.53;;;14.93;35.63
50125;BME280;36023;48.670;6.184;2023-03-04T06:24:37;99683.00;;;14.92;35.54
50125;BME280;36023;48.670;6.184;2023-03-04T06:27:05;99689.13;;;14.91;35.54
50125;BME280;36023;48.670;6.184;2023-03-04T06:29:31;99688.28;;;14.90;35.53
50125;BME280;36023;48.670;6.184;2023-03-04T06:31:57;99694.34;;;14.91;35.60
50125;BME280;36023;48.670;6.184;2023-03-04T06:34:22;99697.84;;;14.90;35.51
50125;BME280;36023;48.670;6.184;2023-03-04T06:36:48;99701.31;;;14.90;35.61
50125;BME280;36023;48.670;6.184;2023-03-04T06:39:14;99708.28;;;14.90;35.46
50125;BME280;36023;48.670;6.184;2023-03-04T06:41:40;99704.03;;;14.87;35.46
50125;BME280;36023;48.670;6.184;2023-03-04T06:44:06;99707.47;;;14.88;35.50
50125;BME280;36023;48.670;6.184;2023-03-04T06:46:33;99712.69;;;14.88;35.42
50125;BME280;36023;48.670;6.184;2023-03-04T06:48:59;99710.09;;;14.86;35.45
50125;BME280;36023;48.670;6.184;2023-03-04T06:51:24;99711.88;;;14.86;35.29
50125;BME280;36023;48.670;6.184;2023-03-04T06:53:50;99713.63;;;14.85;35.38
50125;BME280;36023;48.670;6.184;2023-03-04T06:56:16;99715.38;;;14.85;35.40
50125;BME280;36023;48.670;6.184;2023-03-04T06:58:43;99716.28;;;14.84;35.34
50125;BME280;36023;48.670;6.184;2023-03-04T07:01:22;99712.81;;;14.83;35.34
50125;BME280;36023;48.670;6.184;2023-03-04T07:03:49;99723.25;;;14.83;35.34
50125;BME280;36023;48.670;6.184;2023-03-04T07:06:17;99724.16;;;14.82;35.36
50125;BME280;36023;48.670;6.184;2023-03-04T07:08:44;99729.34;;;14.82;35.32
50125;BME280;36023;48.670;6.184;2023-03-04T07:11:11;99727.59;;;14.83;35.24
50125;BME280;36023;48.670;6.184;2023-03-04T07:13:37;99730.22;;;14.83;35.31
50125;BME280;36023;48.670;6.184;2023-03-04T07:16:08;99732.88;;;14.81;35.26
50125;BME280;36023;48.670;6.184;2023-03-04T07:18:35;99726.81;;;14.81;35.27
50125;BME280;36023;48.670;6.184;2023-03-04T07:21:03;99732.88;;;14.81;35.30
50125;BME280;36023;48.670;6.184;2023-03-04T07:23:31;99734.63;;;14.81;35.31
50125;BME280;36023;48.670;6.184;2023-03-04T07:25:57;99740.69;;;14.81;35.19
50125;BME280;36023;48.670;6.184;2023-03-04T07:28:23;99738.97;;;14.80;35.20
50125;BME280;36023;48.670;6.184;2023-03-04T07:30:49;99738.13;;;14.80;35.25
50125;BME280;36023;48.670;6.184;2023-03-04T07:33:15;99740.75;;;14.80;35.30
50125;BME280;36023;48.670;6.184;2023-03-04T07:35:41;99741.59;;;14.80;35.21
50125;BME280;36023;48.670;6.184;2023-03-04T07:38:06;99745.09;;;14.79;35.17
50125;BME280;36023;48.670;6.184;2023-03-04T07:40:32;99751.16;;;14.80;35.21
50125;BME280;36023;48.670;6.184;2023-03-04T07:42:58;99748.56;;;14.78;35.19
50125;BME280;36023;48.670;6.184;2023-03-04T07:45:25;99745.97;;;14.78;35.27
50125;BME280;36023;48.670;6.184;2023-03-04T07:47:51;99752.91;;;14.79;35.14
50125;BME280;36023;48.670;6.184;2023-03-04T07:50:18;99746.88;;;14.77;35.12
50125;BME280;36023;48.670;6.184;2023-03-04T07:52:46;99746.00;;;14.76;35.05
50125;BME280;36023;48.670;6.184;2023-03-04T07:55:14;99745.16;;;14.76;35.12
50125;BME280;36023;48.670;6.184;2023-03-04T07:57:41;99746.91;;;14.75;35.18
50125;BME280;36023;48.670;6.184;2023-03-04T08:00:08;99750.38;;;14.76;35.21
50125;BME280;36023;48.670;6.184;2023-03-04T08:02:38;99750.38;;;14.76;35.12
50125;BME280;36023;48.670;6.184;2023-03-04T08:05:05;99752.97;;;14.76;35.12
50125;BME280;36023;48.670;6.184;2023-03-04T08:07:30;99760.81;;;14.76;35.06
50125;BME280;36023;48.670;6.184;2023-03-04T08:09:56;99755.59;;;14.76;34.71
50125;BME280;36023;48.670;6.184;2023-03-04T08:12:22;99756.50;;;14.75;35.10
50125;BME280;36023;48.670;6.184;2023-03-04T08:14:49;99755.63;;;14.74;35.06
50125;BME280;36023;48.670;6.184;2023-03-04T08:17:15;99759.94;;;14.75;35.01
50125;BME280;36023;48.670;6.184;2023-03-04T08:19:41;99760.00;;;14.74;35.15
50125;BME280;36023;48.670;6.184;2023-03-04T08:22:07;99770.44;;;14.74;34.99
50125;BME280;36023;48.670;6.184;2023-03-04T08:24:33;99766.13;;;14.73;35.09
50125;BME280;36023;48.670;6.184;2023-03-04T08:26:59;99773.03;;;14.74;35.08
50125;BME280;36023;48.670;6.184;2023-03-04T08:29:25;99776.53;;;14.73;35.20
50125;BME280;36023;48.670;6.184;2023-03-04T08:31:53;99780.84;;;14.74;35.07
50125;BME280;36023;48.670;6.184;2023-03-04T08:34:22;99775.66;;;14.74;35.14
50125;BME280;36023;48.670;6.184;2023-03-04T08:36:47;99776.53;;;14.73;34.99
50125;BME280;36023;48.670;6.184;2023-03-04T08:39:16;99771.31;;;14.73;35.09
50125;BME280;36023;48.670;6.184;2023-03-04T08:41:43;99772.22;;;14.72;34.96
50125;BME280;36023;48.670;6.184;2023-03-04T08:44:09;99774.84;;;14.72;35.11
50125;BME280;36023;48.670;6.184;2023-03-04T08:46:36;99780.06;;;14.72;34.89
50125;BME280;36023;48.670;6.184;2023-03-04T08:49:03;99780.06;;;14.72;35.08
50125;BME280;36023;48.670;6.184;2023-03-04T08:51:29;99774.84;;;14.72;35.07
50125;BME280;36023;48.670;6.184;2023-03-04T08:53:55;99774.84;;;14.72;35.01
50125;BME280;36023;48.670;6.184;2023-03-04T08:56:21;99774.84;;;14.72;34.87
50125;BME280;36023;48.670;6.184;2023-03-04T08:58:46;99777.44;;;14.72;34.90
50125;BME280;36023;48.670;6.184;2023-03-04T09:01:13;99773.97;;;14.71;34.89
50125;BME280;36023;48.670;6.184;2023-03-04T09:03:39;99783.56;;;14.71;34.81
50125;BME280;36023;48.670;6.184;2023-03-04T09:06:06;99780.06;;;14.72;34.88
50125;BME280;36023;48.670;6.184;2023-03-04T09:08:33;99779.19;;;14.71;34.93
50125;BME280;36023;48.670;6.184;2023-03-04T09:10:59;99779.22;;;14.70;35.04
50125;BME280;36023;48.670;6.184;2023-03-04T09:13:25;99781.81;;;14.70;34.94
50125;BME280;36023;48.670;6.184;2023-03-04T09:15:52;99780.94;;;14.71;34.93
50125;BME280;36023;48.670;6.184;2023-03-04T09:18:21;99777.44;;;14.70;34.87
50125;BME280;36023;48.670;6.184;2023-03-04T09:20:47;99777.44;;;14.70;35.03
50125;BME280;36023;48.670;6.184;2023-03-04T09:23:13;99778.34;;;14.69;34.75
50125;BME280;36023;48.670;6.184;2023-03-04T09:25:41;99780.94;;;14.71;34.94
50125;BME280;36023;48.670;6.184;2023-03-04T09:28:07;99780.06;;;14.70;34.83
50125;BME280;36023;48.670;6.184;2023-03-04T09:30:33;99777.44;;;14.70;34.89
50125;BME280;36023;48.670;6.184;2023-03-04T09:32:59;99778.34;;;14.71;34.92
50125;BME280;36023;48.670;6.184;2023-03-04T09:35:26;99781.81;;;14.71;35.03
50125;BME280;36023;48.670;6.184;2023-03-04T09:37:52;99779.19;;;14.71;35.17
50125;BME280;36023;48.670;6.184;2023-03-04T09:40:21;99776.59;;;14.71;34.97
50125;BME280;36023;48.670;6.184;2023-03-04T09:42:54;99780.06;;;14.72;34.81
50125;BME280;36023;48.670;6.184;2023-03-04T09:45:27;99779.19;;;14.71;34.82
50125;BME280;36023;48.670;6.184;2023-03-04T09:47:54;99774.84;;;14.72;34.86
50125;BME280;36023;48.670;6.184;2023-03-04T09:50:20;99773.97;;;14.71;34.96
50125;BME280;36023;48.670;6.184;2023-03-04T09:53:06;99781.81;;;14.71;34.86
50125;BME280;36023;48.670;6.184;2023-03-04T09:55:42;99780.06;;;14.72;34.87
50125;BME280;36023;48.670;6.184;2023-03-04T09:58:45;99773.06;;;14.72;34.88
50125;BME280;36023;48.670;6.184;2023-03-04T10:04:39;99769.63;;;14.70;34.82
50125;BME280;36023;48.670;6.184;2023-03-04T10:07:16;99773.97;;;14.71;34.97
50125;BME280;36023;48.670;6.184;2023-03-04T10:09:52;99770.53;;;14.71;34.79
50125;BME280;36023;48.670;6.184;2023-03-04T10:12:22;99776.59;;;14.71;34.76
50125;BME280;36023;48.670;6.184;2023-03-04T10:17:42;99776.59;;;14.70;34.81
50125;BME280;36023;48.670;6.184;2023-03-04T10:22:51;99772.25;;;14.70;34.88
50125;BME280;36023;48.670;6.184;2023-03-04T10:25:25;99766.16;;;14.70;35.00
50125;BME280;36023;48.670;6.184;2023-03-04T10:28:03;99760.09;;;14.69;35.05
50125;BME280;36023;48.670;6.184;2023-03-04T10:31:01;99755.72;;;14.71;35.04
50125;BME280;36023;48.670;6.184;2023-03-04T10:33:29;99758.28;;;14.73;36.29
50125;BME280;36023;48.670;6.184;2023-03-04T10:38:33;99762.25;;;14.88;38.42
50125;BME280;36023;48.670;6.184;2023-03-04T10:40:59;99760.41;;;14.91;39.01
50125;BME280;36023;48.670;6.184;2023-03-04T10:43:25;99758.59;;;14.93;39.22
50125;BME280;36023;48.670;6.184;2023-03-04T10:45:56;99758.59;;;14.93;39.37
50125;BME280;36023;48.670;6.184;2023-03-04T10:48:26;99748.22;;;14.92;39.51
50125;BME280;36023;48.670;6.184;2023-03-04T10:50:52;99754.34;;;14.91;39.65
50125;BME280;36023;48.670;6.184;2023-03-04T10:53:29;99743.94;;;14.89;39.81
50125;BME280;36023;48.670;6.184;2023-03-04T10:55:59;99745.69;;;14.89;39.75
50125;BME280;36023;48.670;6.184;2023-03-04T10:58:25;99747.44;;;14.88;39.84
50125;BME280;36023;48.670;6.184;2023-03-04T11:01:00;99747.44;;;14.88;39.94
50125;BME280;36023;48.670;6.184;2023-03-04T11:06:08;99744.91;;;14.87;40.36
50125;BME280;36023;48.670;6.184;2023-03-04T11:08:35;99749.22;;;14.86;40.33
50125;BME280;36023;48.670;6.184;2023-03-04T11:11:00;99742.31;;;14.85;40.19
50125;BME280;36023;48.670;6.184;2023-03-04T11:13:26;99740.53;;;14.87;40.38
50125;BME280;36023;48.670;6.184;2023-03-04T11:15:56;99741.19;;;14.94;40.41
50125;BME280;36023;48.670;6.184;2023-03-04T11:18:49;99739.31;;;14.99;40.58
50125;BME280;36023;48.670;6.184;2023-03-04T11:21:28;99738.25;;;15.06;40.46
50125;BME280;36023;48.670;6.184;2023-03-04T11:24:03;99736.34;;;15.13;40.61
50125;BME280;36023;48.670;6.184;2023-03-04T11:26:39;99737.94;;;15.18;40.51
50125;BME280;36023;48.670;6.184;2023-03-04T11:29:17;99732.53;;;15.24;40.43
50125;BME280;36023;48.670;6.184;2023-03-04T11:31:48;99722.88;;;15.28;40.51
50125;BME280;36023;48.670;6.184;2023-03-04T11:34:43;99726.22;;;15.33;40.45
50125;BME280;36023;48.670;6.184;2023-03-04T11:37:20;99723.41;;;15.39;40.49
50125;BME280;36023;48.670;6.184;2023-03-04T11:40:00;99719.81;;;15.43;40.38
50125;BME280;36023;48.670;6.184;2023-03-04T11:42:59;99717.09;;;15.46;40.40
50125;BME280;36023;48.670;6.184;2023-03-04T11:45:54;99718.72;;;15.50;40.26
50125;BME280;36023;48.670;6.184;2023-03-04T11:48:35;99723.78;;;15.55;40.22
50125;BME280;36023;48.670;6.184;2023-03-04T11:51:24;99721.13;;;15.58;40.40
50125;BME280;36023;48.670;6.184;2023-03-04T11:56:43;99711.25;;;15.68;40.19
50125;BME280;36023;48.670;6.184;2023-03-04T12:02:12;99705.75;;;15.77;40.36
50125;BME280;36023;48.670;6.184;2023-03-04T12:10:12;99706.41;;;15.83;40.17
50125;BME280;36023;48.670;6.184;2023-03-04T12:15:42;99696.69;;;15.88;40.24
50125;BME280;36023;48.670;6.184;2023-03-04T12:23:40;99693.00;;;15.94;40.05
50125;BME280;36023;48.670;6.184;2023-03-04T12:29:02;99687.50;;;16.03;40.45
50125;BME280;36023;48.670;6.184;2023-03-04T12:31:40;99685.53;;;16.10;40.41
50125;BME280;36023;48.670;6.184;2023-03-04T12:39:32;99674.81;;;16.17;40.16
50125;BME280;36023;48.670;6.184;2023-03-04T12:48:03;99668.66;;;16.20;40.20
50125;BME280;36023;48.670;6.184;2023-03-04T12:53:08;99668.72;;;16.19;39.95
50125;BME280;36023;48.670;6.184;2023-03-04T12:55:40;99665.34;;;16.15;39.98
50125;BME280;36023;48.670;6.184;2023-03-04T12:58:15;99662.84;;;16.12;39.92
50125;BME280;36023;48.670;6.184;2023-03-04T13:11:00;99647.19;;;16.10;40.14
50125;BME280;36023;48.670;6.184;2023-03-04T13:13:38;99644.56;;;16.10;40.21
50125;BME280;36023;48.670;6.184;2023-03-04T13:16:26;99636.72;;;16.10;40.05
50125;BME280;36023;48.670;6.184;2023-03-04T13:18:51;99643.69;;;16.11;40.20
50125;BME280;36023;48.670;6.184;2023-03-04T13:21:23;99633.25;;;16.11;40.32
50125;BME280;36023;48.670;6.184;2023-03-04T13:23:50;99626.28;;;16.10;40.18
50125;BME280;36023;48.670;6.184;2023-03-04T13:26:33;99625.44;;;16.10;40.24
50125;BME280;36023;48.670;6.184;2023-03-04T13:42:48;99610.91;;;16.01;41.02
50125;BME280;36023;48.670;6.184;2023-03-04T13:47:57;99615.50;;;15.95;40.58
50125;BME280;36023;48.670;6.184;2023-03-04T13:50:31;99620.78;;;15.93;40.73
50125;BME280;36023;48.670;6.184;2023-03-04T13:58:34;99615.75;;;15.87;40.71
50125;BME280;36023;48.670;6.184;2023-03-04T14:01:00;99614.03;;;15.86;40.88
50125;BME280;36023;48.670;6.184;2023-03-04T14:03:28;99610.50;;;15.88;40.94
50125;BME280;36023;48.670;6.184;2023-03-04T14:06:15;99608.63;;;15.92;40.87
50125;BME280;36023;48.670;6.184;2023-03-04T14:08:42;99607.66;;;15.95;41.06
50125;BME280;36023;48.670;6.184;2023-03-04T14:11:35;99606.72;;;15.97;41.02
50125;BME280;36023;48.670;6.184;2023-03-04T14:14:05;99602.28;;;15.99;41.02
50125;BME280;36023;48.670;6.184;2023-03-04T14:16:37;99605.75;;;16.00;41.21
50125;BME280;36023;48.670;6.184;2023-03-04T14:19:06;99614.38;;;16.02;41.03
50125;BME280;36023;48.670;6.184;2023-03-04T14:21:34;99608.25;;;16.03;41.06
50125;BME280;36023;48.670;6.184;2023-03-04T14:24:05;99606.53;;;16.03;41.02
50125;BME280;36023;48.670;6.184;2023-03-04T14:26:32;99603.03;;;16.03;41.21
50125;BME280;36023;48.670;6.184;2023-03-04T14:28:59;99605.63;;;16.04;41.25
50125;BME280;36023;48.670;6.184;2023-03-04T14:31:29;99597.66;;;16.07;41.46
50125;BME280;36023;48.670;6.184;2023-03-04T14:33:59;99600.28;;;16.07;41.30